Onde está Fonte das Bicas en Portugal?

Fonte das Bicas está situado na região Evora em Portugal!

Buscar o nome de uma cidade:

Fontaine, Fontennelle Mountain, Fontenelle, Fonte Arcada, Fontery

Aqui você vai encontrar a localização de Fonte das Bicas em um mapa.
Para ver como ele atualmente parece, abaixo estão algumas fotos da região, com webcams online.
Você também pode encontrar a distância para as principais cidades da região e de cidades do resto do Portugal.

Todos os lugares do mundo chamado .

new

Onde está Fonte das Bicas no mapa?


Webcams perto Fonte das Bicas

Abrantes > South-West: Centro Cidade.


Abrantes > South-West: Centro Cidade - Dia
Actual
Abrantes > South-West: Centro Cidade - Actual

Abrantes > North-West: > North-West: Zona Alta (Torre).


Abrantes > North-West: > North-West: Zona Alta (Torre) - Dia
Actual
Abrantes > North-West: > North-West: Zona Alta (Torre) - Actual

Benavente > North-East: AIrport, METAR: BENAV 180005Z 36004KT 17/14 Q1015.


Benavente > North-East: AIrport, METAR: BENAV 180005Z 36004KT 17/14 Q1015 - Dia
Actual
Benavente > North-East: AIrport, METAR: BENAV 180005Z 36004KT 17/14 Q1015 - Actual

Webcams provided by webcams.travel

Distâncias

Onde está Fonte das Bicas em relação a outros lugares?

Top 10 cidades em Evora e distância de Fonte das Bicas.

Cidade#Populaçãokmmilhas
Évora1458514528
Montemor-o-Novo2128547144
Vendas Novas3112489257
Estremoz493492314
Reguengos de Monsaraz572173220
Redondo65845149
Vila Viçosa7548485
Borba84586138
Adaval9-2113
Agua d' Alte10-149

Top 10 cidades em Portugal e distância de Fonte das Bicas.

Cidade # Populaçãokmmilhas
Lisbon151779815093
Porto2249630291181
Amadora317885615999
Braga4121393328204
Setúbal511710913282
Coimbra6106580188117
Queluz7103398161100
Funchal8980411091678
Vila Nova de Gaia970810290180
Loures106623015496